.
WxDataArchive / Data Records for 2006-11-24
2006-11-23 November 2006 2006-11-25

Data Records for Friday, 24 November 2006

Time	Temp	Chill	HIndex	Humid	Dewpt	 Wind 	HiWind	WindDir	Rain 	Barom 
-----	----	-----	------	-----	-----	------	------	-------	-----	----- 
00:00	28.2	28.2	28.2	96	27.2	0	1	90	0.00	30.251 
00:05	28.2	28.2	28.2	96	27.2	0	1	90	0.00	30.251 
00:10	28.4	28.4	28.4	96	27.4	1	2	90	0.00	30.251 
00:15	28.4	28.4	28.4	96	27.4	0	2	90	0.00	30.248 
00:20	28.4	28.4	28.4	96	27.4	0	1	90	0.00	30.248 
00:25	28.4	28.4	28.4	96	27.4	0	1	90	0.00	30.248 
00:30	28.4	28.4	28.4	96	27.4	0	1	90	0.00	30.248 
00:35	28.4	28.4	28.4	96	27.4	1	2	90	0.00	30.248 
00:40	28.2	28.2	28.2	96	27.2	0	2	90	0.00	30.248 
00:45	28.2	28.2	28.2	96	27.2	0	1	90	0.00	30.248 
00:50	28.2	28.2	28.2	96	27.2	0	2	90	0.00	30.248 
00:55	28.2	28.2	28.2	96	27.2	0	1	90	0.00	30.248 
01:00	28.4	28.4	28.4	96	27.4	0	1	90	0.00	30.250 
01:05	28.4	28.4	28.4	96	27.4	0	1	90	0.00	30.250 
01:10	28.2	28.2	28.2	96	27.2	0	0	---	0.00	30.250 
01:15	28.2	28.2	28.2	96	27.2	0	1	90	0.00	30.241 
01:20	27.9	27.9	27.9	97	27.2	0	1	90	0.00	30.241 
01:25	27.9	27.9	27.9	97	27.2	0	1	90	0.00	30.241 
01:30	27.9	27.9	27.9	97	27.2	0	1	90	0.00	30.239 
01:35	28.1	28.1	28.1	97	27.4	0	1	90	0.00	30.239 
01:40	28.1	28.1	28.1	97	27.4	0	2	90	0.00	30.239 
01:45	28.1	28.1	28.1	97	27.4	0	2	90	0.00	30.234 
01:50	27.9	27.9	27.9	97	27.2	1	2	90	0.00	30.234 
01:55	27.9	27.9	27.9	97	27.2	0	2	90	0.00	30.234 
02:00	27.9	27.9	27.9	97	27.2	1	3	90	0.00	30.229 
02:05	27.9	27.9	27.9	97	27.2	0	1	90	0.00	30.229 
02:10	27.9	27.9	27.9	97	27.2	0	2	90	0.00	30.229 
02:15	27.9	27.9	27.9	97	27.2	0	1	90	0.00	30.227 
02:20	27.9	27.9	27.9	97	27.2	0	1	90	0.00	30.227 
02:25	27.8	27.8	27.8	97	27.1	0	2	90	0.00	30.227 
02:30	27.8	27.8	27.8	97	27.1	1	2	90	0.00	30.228 
02:35	27.8	27.8	27.8	97	27.1	0	2	90	0.00	30.228 
02:40	27.8	27.8	27.8	97	27.1	1	2	90	0.00	30.228 
02:45	27.6	27.6	27.6	97	26.9	1	3	90	0.00	30.230 
02:50	27.5	27.5	27.5	97	26.8	1	2	90	0.00	30.230 
02:55	27.5	27.5	27.5	97	26.8	1	2	90	0.00	30.230 
03:00	27.5	27.5	27.5	97	26.8	1	3	90	0.00	30.229 
03:05	27.3	27.3	27.3	97	26.6	1	3	112	0.00	30.229 
03:10	27.2	27.2	27.2	97	26.5	0	2	112	0.00	30.229 
03:15	27.2	27.2	27.2	97	26.5	1	2	112	0.00	30.230 
03:20	27.0	27.0	27.0	97	26.3	0	1	112	0.00	30.230 
03:25	26.9	26.9	26.9	97	26.2	0	2	112	0.00	30.230 
03:30	26.9	26.9	26.9	97	26.2	1	2	112	0.00	30.231 
03:35	27.5	27.5	27.5	97	26.8	0	2	112	0.00	30.231 
03:40	27.2	27.2	27.2	97	26.5	0	1	112	0.00	30.231 
03:45	26.9	26.9	26.9	97	26.2	0	1	112	0.00	30.232 
03:50	26.9	26.9	26.9	97	26.2	0	1	112	0.00	30.232 
03:55	26.7	26.7	26.7	97	26.0	0	2	112	0.00	30.232 
04:00	26.7	26.7	26.7	97	26.0	0	1	112	0.00	30.233 
04:05	26.7	26.7	26.7	97	26.0	0	1	112	0.00	30.233 
04:10	26.7	26.7	26.7	97	26.0	1	2	112	0.00	30.233 
04:15	26.6	26.6	26.6	96	25.6	1	2	112	0.00	30.237 
04:20	26.4	26.4	26.4	96	25.4	1	2	112	0.00	30.237 
04:25	26.3	26.3	26.3	96	25.3	1	3	112	0.00	30.237 
04:30	26.1	26.1	26.1	96	25.1	0	2	90	0.00	30.240 
04:35	26.3	26.3	26.3	96	25.3	0	2	90	0.00	30.240 
04:40	26.3	26.3	26.3	96	25.3	1	3	90	0.00	30.240 
04:45	26.1	26.1	26.1	96	25.1	1	2	90	0.00	30.240 
04:50	26.3	26.3	26.3	96	25.3	1	3	90	0.00	30.240 
04:55	26.1	26.1	26.1	96	25.1	1	3	90	0.00	30.240 
05:00	26.1	26.1	26.1	96	25.1	1	2	90	0.00	30.241 
05:05	26.0	26.0	26.0	96	25.0	2	3	90	0.00	30.241 
05:10	26.0	26.0	26.0	96	25.0	1	4	112	0.00	30.241 
05:15	26.0	26.0	26.0	96	25.0	1	4	112	0.00	30.251 
05:20	26.1	26.1	26.1	96	25.1	1	2	112	0.00	30.251 
05:25	26.1	26.1	26.1	96	25.1	1	3	112	0.00	30.251 
05:30	26.1	26.1	26.1	96	25.1	1	2	90	0.00	30.254 
05:35	26.1	26.1	26.1	96	25.1	1	3	112	0.00	30.254 
05:40	26.1	26.1	26.1	96	25.1	1	2	112	0.00	30.254 
05:45	26.3	26.3	26.3	96	25.3	1	2	112	0.00	30.254 
05:50	26.3	26.3	26.3	96	25.3	1	2	112	0.00	30.254 
05:55	26.3	26.3	26.3	96	25.3	1	2	112	0.00	30.254 
06:00	26.4	26.4	26.4	96	25.4	0	1	112	0.00	30.262 
06:05	26.4	26.4	26.4	96	25.4	0	2	112	0.00	30.262 
06:10	26.6	26.6	26.6	96	25.6	1	2	112	0.00	30.262 
06:15	26.4	26.4	26.4	96	25.4	0	1	112	0.00	30.267 
06:20	26.6	26.6	26.6	96	25.6	0	1	112	0.00	30.267 
06:25	26.7	26.7	26.7	96	25.7	0	1	112	0.00	30.267 
06:30	26.7	26.7	26.7	96	25.7	0	1	112	0.00	30.267 
06:35	26.9	26.9	26.9	96	25.9	0	1	112	0.00	30.267 
06:40	26.9	26.9	26.9	96	25.9	0	1	112	0.00	30.267 
06:45	26.9	26.9	26.9	96	25.9	0	0	---	0.00	30.269 
06:50	26.9	26.9	26.9	96	25.9	0	2	112	0.00	30.269 
06:55	26.9	26.9	26.9	96	25.9	1	2	112	0.00	30.269 
07:00	26.9	26.9	26.9	96	25.9	1	2	112	0.00	30.269 
07:05	26.7	26.7	26.7	96	25.7	0	2	112	0.00	30.269 
07:10	26.9	26.9	26.9	96	25.9	0	1	112	0.00	30.269 
07:15	26.9	26.9	26.9	96	25.9	0	2	112	0.00	30.271 
07:20	26.9	26.9	26.9	96	25.9	0	2	112	0.00	30.271 
07:25	26.9	26.9	26.9	96	25.9	0	2	112	0.00	30.271 
07:30	26.9	26.9	26.9	96	25.9	0	1	112	0.00	30.271 
07:35	27.0	27.0	27.0	96	26.0	1	2	112	0.00	30.271 
07:40	26.9	26.9	26.9	96	25.9	1	2	112	0.00	30.271 
07:45	26.9	26.9	26.9	96	25.9	1	2	112	0.00	30.270 
07:50	26.9	26.9	26.9	96	25.9	1	3	112	0.00	30.270 
07:55	26.9	26.9	26.9	96	25.9	0	2	112	0.00	30.270 
08:00	26.9	26.9	26.9	96	25.9	0	1	112	0.00	30.272 
08:05	26.7	26.7	26.7	96	25.7	1	2	112	0.00	30.272 
08:10	26.7	26.7	26.7	96	25.7	1	2	90	0.00	30.272 
08:15	26.7	26.7	26.7	96	25.7	1	2	90	0.00	30.276 
08:20	26.7	26.7	26.7	96	25.7	1	2	90	0.00	30.276 
08:25	26.6	26.6	26.6	96	25.6	1	2	90	0.00	30.276 
08:30	26.7	26.7	26.7	96	25.7	1	3	90	0.00	30.280 
08:35	26.7	26.7	26.7	96	25.7	1	3	90	0.00	30.280 
08:40	26.6	26.6	26.6	96	25.6	1	3	112	0.00	30.280 
08:45	26.7	26.7	26.7	96	25.7	1	3	112	0.00	30.279 
08:50	26.9	26.9	26.9	96	25.9	1	4	135	0.00	30.279 
08:55	26.9	26.9	26.9	96	25.9	1	3	135	0.00	30.279 
09:00	26.9	26.9	26.9	96	25.9	2	4	90	0.00	30.287 
09:05	27.0	27.0	27.0	96	26.0	1	4	112	0.00	30.287 
09:10	27.2	27.2	27.2	96	26.2	1	2	90	0.00	30.287 
09:15	27.3	27.3	27.3	96	26.3	1	4	90	0.00	30.289 
09:20	27.5	27.5	27.5	96	26.5	1	3	90	0.00	30.289 
09:25	27.6	27.6	27.6	96	26.6	1	3	90	0.00	30.289 
09:30	27.6	27.6	27.6	96	26.6	1	3	90	0.00	30.286 
09:35	27.8	27.8	27.8	96	26.8	1	3	90	0.00	30.286 
09:40	28.2	28.2	28.2	96	27.2	1	4	90	0.00	30.286 
09:45	28.2	28.2	28.2	96	27.2	1	3	112	0.00	30.283 
09:50	28.5	28.5	28.5	96	27.5	1	3	112	0.00	30.283 
09:55	29.0	29.0	29.0	97	28.3	1	2	112	0.00	30.283 
10:00	29.1	29.1	29.1	97	28.4	2	3	90	0.00	30.285 
10:05	29.3	29.3	29.3	97	28.6	1	3	112	0.00	30.285 
10:10	29.5	29.5	29.5	97	28.8	1	2	90	0.00	30.285 
10:15	29.5	29.5	29.5	97	28.8	1	3	90	0.00	30.286 
10:20	29.8	29.8	29.8	97	29.1	1	2	90	0.00	30.286 
10:25	30.1	30.1	30.1	97	29.4	0	2	90	0.01	30.286 
10:30	30.3	30.3	30.3	97	29.6	1	3	90	0.00	30.289 
10:35	30.6	30.6	30.6	97	29.9	1	3	90	0.00	30.289 
10:40	30.7	30.7	30.7	97	30.0	1	3	90	0.00	30.289 
10:45	30.9	30.9	30.9	98	30.4	2	3	112	0.00	30.279 
10:50	31.2	31.2	31.2	98	30.7	1	3	112	0.00	30.279 
10:55	31.3	31.3	31.3	98	30.8	0	2	112	0.00	30.279 
11:00	31.5	31.5	31.5	98	31.0	1	3	112	0.00	30.278 
11:05	31.6	31.6	31.6	98	31.1	1	4	90	0.00	30.278 
11:10	31.8	31.8	31.8	98	31.3	1	3	90	0.00	30.278 
11:15	32.1	32.1	32.1	98	31.6	1	3	90	0.00	30.271 
11:20	32.4	32.4	32.4	98	31.9	0	1	90	0.00	30.271 
11:25	32.8	32.8	32.8	98	32.3	1	3	90	0.00	30.271 
11:30	33.1	33.1	33.1	98	32.6	0	2	90	0.00	30.268 
11:35	33.7	33.7	33.7	98	33.2	1	3	90	0.00	30.268 
11:40	34.3	34.3	34.3	98	33.8	0	2	90	0.00	30.268 
11:45	34.9	34.9	34.9	98	34.4	2	5	90	0.00	30.260 
11:50	35.2	35.2	35.2	98	34.7	1	4	90	0.00	30.260 
11:55	35.3	35.3	35.3	98	34.8	1	3	135	0.00	30.260 
12:00	35.6	35.6	35.6	98	35.1	2	5	90	0.00	30.243 
12:05	35.8	35.8	35.8	98	35.3	2	5	112	0.00	30.243 
12:10	36.2	36.2	36.2	98	35.7	1	3	112	0.00	30.243 
12:15	36.8	36.8	36.8	99	36.5	1	3	135	0.00	30.223 
12:20	37.2	37.2	37.2	99	36.9	2	4	68	0.00	30.223 
12:25	37.8	37.8	37.8	99	37.5	2	4	112	0.00	30.223 
12:30	38.3	38.3	38.3	99	38.0	1	4	90	0.00	30.217 
12:35	38.6	38.6	38.6	99	38.3	1	2	135	0.00	30.217 
12:40	38.8	38.8	38.8	99	38.5	1	3	112	0.00	30.217 
12:45	38.9	38.9	38.9	99	38.6	1	3	112	0.00	30.216 
12:50	39.5	39.5	39.5	99	39.2	1	3	112	0.00	30.216 
12:55	39.9	39.9	39.9	99	39.6	1	2	135	0.00	30.216 
13:00	40.3	40.3	40.3	98	39.8	1	3	112	0.00	30.212 
13:05	40.8	40.8	40.8	98	40.3	1	3	112	0.00	30.212 
13:10	41.5	41.5	41.5	97	40.7	1	3	112	0.00	30.212 
13:15	41.9	41.9	41.9	94	40.3	1	3	90	0.00	30.199 
13:20	42.5	42.5	42.5	91	40.1	2	4	112	0.00	30.199 
13:25	43.2	43.2	43.2	90	40.5	1	4	90	0.00	30.199 
13:30	43.6	43.6	43.6	88	40.3	2	4	112	0.00	30.192 
13:35	44.1	44.1	44.1	87	40.5	1	4	112	0.00	30.192 
13:40	44.3	44.3	44.3	85	40.1	1	4	112	0.00	30.192 
13:45	44.8	44.8	44.8	84	40.3	1	3	90	0.00	30.189 
13:50	45.1	45.1	45.1	83	40.3	1	3	112	0.00	30.189 
13:55	45.5	45.5	45.5	81	40.0	1	4	112	0.00	30.189 
14:00	46.0	46.0	46.0	80	40.2	1	4	135	0.00	30.180 
14:05	46.4	46.4	46.4	80	40.6	1	3	112	0.00	30.180 
14:10	47.0	47.0	47.0	78	40.5	2	4	90	0.00	30.180 
14:15	47.6	47.6	47.6	77	40.8	1	3	90	0.00	30.175 
14:20	48.3	48.3	48.3	74	40.4	1	3	112	0.00	30.175 
14:25	49.1	49.1	49.1	73	40.8	1	3	112	0.00	30.175 
14:30	49.6	49.6	49.6	71	40.6	1	4	90	0.00	30.169 
14:35	50.4	50.4	50.4	69	40.6	2	4	90	0.00	30.169 
14:40	50.7	50.7	50.7	70	41.3	0	2	135	0.00	30.169 
14:45	51.0	51.0	51.0	68	40.8	1	3	135	0.00	30.163 
14:50	51.4	51.4	51.4	67	40.8	1	3	90	0.00	30.163 
14:55	51.9	51.9	51.9	66	40.9	1	2	112	0.00	30.163 
15:00	52.3	52.3	52.3	64	40.5	1	3	112	0.00	30.157 
15:05	52.8	52.8	52.8	63	40.6	1	3	112	0.00	30.157 
15:10	53.2	53.2	53.2	62	40.5	2	5	112	0.00	30.157 
15:15	53.6	53.6	53.6	60	40.1	2	3	90	0.00	30.154 
15:20	54.1	54.1	54.1	60	40.5	1	4	90	0.00	30.154 
15:25	54.2	54.2	54.2	59	40.2	2	3	112	0.00	30.154 
15:30	54.4	54.4	54.4	58	39.9	2	5	112	0.00	30.143 
15:35	54.7	54.7	54.7	58	40.2	2	4	90	0.00	30.143 
15:40	54.8	54.8	54.8	57	39.9	1	4	90	0.00	30.143 
15:45	55.1	55.1	55.1	56	39.7	2	3	90	0.00	30.139 
15:50	55.3	55.3	55.3	56	39.9	1	3	112	0.00	30.139 
15:55	55.4	55.4	55.4	55	39.5	1	3	112	0.00	30.139 
16:00	55.6	55.6	55.6	55	39.7	1	3	112	0.00	30.135 
16:05	55.7	55.7	55.7	54	39.3	1	2	112	0.00	30.135 
16:10	55.7	55.7	55.7	46	35.2	1	3	112	0.00	30.135 
16:15	56.2	56.2	56.2	43	34.0	1	2	112	0.00	30.138 
16:20	56.5	56.5	56.5	42	33.7	1	3	135	0.00	30.138 
16:25	56.5	56.5	56.5	42	33.7	0	3	112	0.00	30.138 
16:30	56.5	56.5	56.5	41	33.1	1	2	112	0.00	30.138 
16:35	56.3	56.3	56.3	42	33.5	0	1	135	0.00	30.138 
16:40	56.2	56.2	56.2	42	33.4	0	2	135	0.00	30.138 
16:45	55.9	55.9	55.9	42	33.1	0	2	135	0.00	30.136 
16:50	55.7	55.7	55.7	43	33.6	0	1	135	0.00	30.136 
16:55	55.3	55.3	55.3	44	33.8	0	1	135	0.00	30.136 
17:00	54.7	54.7	54.7	44	33.2	0	1	135	0.00	30.137 
17:05	54.2	54.2	54.2	45	33.3	0	0	---	0.00	30.137 
17:10	53.6	53.6	53.6	46	33.3	0	0	---	0.00	30.137 
17:15	53.1	53.1	53.1	47	33.4	0	0	---	0.00	30.140 
17:20	52.3	52.3	52.3	48	33.2	0	0	---	0.00	30.140 
17:25	51.6	51.6	51.6	50	33.6	0	1	135	0.00	30.140 
17:30	51.1	51.1	51.1	51	33.6	0	1	112	0.00	30.141 
17:35	50.7	50.7	50.7	52	33.7	0	0	---	0.00	30.141 
17:40	50.2	50.2	50.2	53	33.7	0	0	---	0.00	30.141 
17:45	49.5	49.5	49.5	54	33.6	0	0	---	0.00	30.144 
17:50	48.8	48.8	48.8	55	33.4	0	0	---	0.00	30.144 
17:55	48.2	48.2	48.2	57	33.7	0	0	---	0.00	30.144 
18:00	47.6	47.6	47.6	58	33.6	0	0	---	0.00	30.147 
18:05	46.7	46.7	46.7	60	33.6	0	0	---	0.00	30.147 
18:10	46.0	46.0	46.0	61	33.3	0	0	---	0.00	30.147 
18:15	45.2	45.2	45.2	62	33.0	0	0	---	0.00	30.151 
18:20	44.6	44.6	44.6	64	33.2	0	0	---	0.00	30.151 
18:25	44.1	44.1	44.1	65	33.1	0	0	---	0.00	30.151 
18:30	43.5	43.5	43.5	67	33.3	0	0	---	0.00	30.159 
18:35	43.1	43.1	43.1	68	33.3	0	0	---	0.00	30.159 
18:40	42.5	42.5	42.5	69	33.1	0	0	---	0.00	30.159 
18:45	42.1	42.1	42.1	70	33.0	0	0	---	0.00	30.161 
18:50	41.5	41.5	41.5	71	32.8	0	0	---	0.00	30.161 
18:55	41.1	41.1	41.1	72	32.8	0	0	---	0.00	30.161 
19:00	40.6	40.6	40.6	73	32.6	0	0	---	0.00	30.157 
19:05	40.3	40.3	40.3	73	32.3	0	0	---	0.00	30.157 
19:10	39.9	39.9	39.9	74	32.3	0	0	---	0.00	30.157 
19:15	39.5	39.5	39.5	74	31.9	0	0	---	0.00	30.158 
19:20	39.2	39.2	39.2	75	32.0	0	0	---	0.00	30.158 
19:25	38.9	38.9	38.9	77	32.3	0	0	---	0.00	30.158 
19:30	38.8	38.8	38.8	77	32.2	0	0	---	0.00	30.161 
19:35	38.5	38.5	38.5	78	32.2	0	0	---	0.00	30.161 
19:40	38.2	38.2	38.2	78	32.0	0	0	---	0.00	30.161 
19:45	38.0	38.0	38.0	78	31.8	0	0	---	0.00	30.155 
19:50	37.9	37.9	37.9	78	31.7	0	0	---	0.00	30.155 
19:55	37.9	37.9	37.9	78	31.7	0	0	---	0.00	30.155 
20:00	37.8	37.8	37.8	78	31.6	0	0	---	0.00	30.152 
20:05	37.5	37.5	37.5	78	31.3	0	0	---	0.00	30.152 
20:10	37.3	37.3	37.3	79	31.4	0	0	---	0.00	30.152 
20:15	37.0	37.0	37.0	80	31.4	0	0	---	0.00	30.150 
20:20	37.0	37.0	37.0	80	31.4	0	0	---	0.00	30.150 
20:25	36.9	36.9	36.9	80	31.3	0	0	---	0.00	30.150 
20:30	36.8	36.8	36.8	80	31.2	0	0	---	0.00	30.143 
20:35	36.8	36.8	36.8	80	31.2	0	0	---	0.00	30.143 
20:40	36.8	36.8	36.8	80	31.2	0	0	---	0.00	30.143 
20:45	36.6	36.6	36.6	80	31.0	0	0	---	0.00	30.140 
20:50	36.6	36.6	36.6	79	30.7	0	0	---	0.00	30.140 
20:55	36.5	36.5	36.5	79	30.6	0	0	---	0.00	30.140 
21:00	36.5	36.5	36.5	80	30.9	0	0	---	0.00	30.139 
21:05	36.6	36.6	36.6	78	30.4	0	1	112	0.00	30.139 
21:10	37.2	37.2	37.2	75	30.0	0	0	---	0.00	30.139 
21:15	37.9	37.9	37.9	73	30.0	0	1	112	0.00	30.135 
21:20	38.3	38.3	38.3	72	30.1	0	0	---	0.00	30.135 
21:25	38.8	38.8	38.8	71	30.2	0	0	---	0.00	30.135 
21:30	39.1	39.1	39.1	69	29.8	0	0	---	0.00	30.134 
21:35	39.1	39.1	39.1	69	29.8	0	0	---	0.00	30.134 
21:40	39.1	39.1	39.1	70	30.2	0	0	---	0.00	30.134 
21:45	38.9	38.9	38.9	69	29.6	0	1	112	0.00	30.132 
21:50	39.1	39.1	39.1	68	29.4	0	1	112	0.00	30.132 
21:55	39.5	39.5	39.5	66	29.1	0	1	112	0.00	30.132 
22:00	39.6	39.6	39.6	67	29.6	0	0	---	0.00	30.128 
22:05	39.6	39.6	39.6	67	29.6	0	1	112	0.00	30.128 
22:10	39.6	39.6	39.6	67	29.6	0	0	---	0.00	30.128 
22:15	39.5	39.5	39.5	67	29.5	0	0	---	0.00	30.125 
22:20	39.2	39.2	39.2	68	29.5	0	0	---	0.00	30.125 
22:25	38.9	38.9	38.9	69	29.6	0	1	112	0.00	30.125 
22:30	38.6	38.6	38.6	69	29.3	0	0	---	0.00	30.122 
22:35	38.5	38.5	38.5	69	29.2	0	0	---	0.00	30.122 
22:40	38.3	38.3	38.3	69	29.0	0	0	---	0.00	30.122 
22:45	38.3	38.3	38.3	69	29.0	0	0	---	0.00	30.119 
22:50	38.8	38.8	38.8	67	28.8	0	1	112	0.00	30.119 
22:55	39.1	39.1	39.1	67	29.1	0	0	---	0.00	30.119 
23:00	39.2	39.2	39.2	67	29.2	0	0	---	0.00	30.118 
23:05	39.2	39.2	39.2	67	29.2	0	0	---	0.00	30.118 
23:10	39.2	39.2	39.2	67	29.2	0	0	---	0.00	30.118 
23:15	39.2	39.2	39.2	67	29.2	0	1	112	0.00	30.113 
23:20	39.3	39.3	39.3	66	28.9	0	1	112	0.00	30.113 
23:25	39.5	39.5	39.5	65	28.7	0	1	112	0.00	30.113 
23:30	39.5	39.5	39.5	66	29.1	0	0	---	0.00	30.111 
23:35	39.2	39.2	39.2	67	29.2	0	0	---	0.00	30.111 
23:40	38.9	38.9	38.9	68	29.3	0	0	---	0.00	30.111 
23:45	38.5	38.5	38.5	68	28.9	0	0	---	0.00	30.113 
23:50	38.2	38.2	38.2	69	28.9	0	0	---	0.00	30.113 
23:55	37.9	37.9	37.9	70	29.0	0	0	---	0.00	30.113 

CoCoRaHS
IN-AL-39
A2 Web Hosting
Creative Commons License
GoDaddy
Look for:

loaded 2017-12-12 14:45:46 • last modified 2010-11-18 10:43:29
Privacy PolicyDisclaimer
• wx.awcolley.com is powered by PmWiki v.2002016 •
• all content (unless otherwise noted) © 2017 A W Colley